sensor_id;sensor_type;location;lat;lon;timestamp;P1;durP1;ratioP1;P2;durP2;ratioP2
56718;SDS011;42597;40.636;0.278;2023-09-08T00:01:36;8.15;;;5.47;;
56718;SDS011;42597;40.636;0.278;2023-09-08T00:04:02;8.32;;;5.28;;
56718;SDS011;42597;40.636;0.278;2023-09-08T00:06:27;8.70;;;6.03;;
56718;SDS011;42597;40.636;0.278;2023-09-08T00:08:53;8.70;;;5.43;;
56718;SDS011;42597;40.636;0.278;2023-09-08T00:11:18;8.20;;;5.40;;
56718;SDS011;42597;40.636;0.278;2023-09-08T00:13:44;10.15;;;5.20;;
56718;SDS011;42597;40.636;0.278;2023-09-08T00:16:09;8.27;;;6.00;;
56718;SDS011;42597;40.636;0.278;2023-09-08T00:18:35;7.07;;;6.03;;
56718;SDS011;42597;40.636;0.278;2023-09-08T00:21:01;8.52;;;6.10;;
56718;SDS011;42597;40.636;0.278;2023-09-08T00:23:26;6.13;;;5.25;;
56718;SDS011;42597;40.636;0.278;2023-09-08T00:25:53;14.07;;;5.90;;
56718;SDS011;42597;40.636;0.278;2023-09-08T00:28:19;7.35;;;6.05;;
56718;SDS011;42597;40.636;0.278;2023-09-08T00:30:44;6.35;;;5.38;;
56718;SDS011;42597;40.636;0.278;2023-09-08T00:33:10;7.97;;;5.50;;
56718;SDS011;42597;40.636;0.278;2023-09-08T00:35:37;6.78;;;5.32;;
56718;SDS011;42597;40.636;0.278;2023-09-08T00:38:03;8.07;;;5.40;;
56718;SDS011;42597;40.636;0.278;2023-09-08T00:40:29;7.70;;;5.47;;
56718;SDS011;42597;40.636;0.278;2023-09-08T00:42:54;6.65;;;5.03;;
56718;SDS011;42597;40.636;0.278;2023-09-08T00:45:20;8.48;;;5.75;;
56718;SDS011;42597;40.636;0.278;2023-09-08T00:47:46;11.02;;;5.85;;
56718;SDS011;42597;40.636;0.278;2023-09-08T00:50:11;7.82;;;5.88;;
56718;SDS011;42597;40.636;0.278;2023-09-08T00:52:37;7.00;;;5.28;;
56718;SDS011;42597;40.636;0.278;2023-09-08T00:55:03;9.75;;;6.10;;
56718;SDS011;42597;40.636;0.278;2023-09-08T00:57:29;7.10;;;5.65;;
56718;SDS011;42597;40.636;0.278;2023-09-08T00:59:55;7.65;;;5.88;;
56718;SDS011;42597;40.636;0.278;2023-09-08T01:02:20;7.97;;;6.25;;
56718;SDS011;42597;40.636;0.278;2023-09-08T01:04:47;10.23;;;6.20;;
56718;SDS011;42597;40.636;0.278;2023-09-08T01:07:13;8.48;;;4.88;;
56718;SDS011;42597;40.636;0.278;2023-09-08T01:09:39;8.57;;;5.75;;
56718;SDS011;42597;40.636;0.278;2023-09-08T01:12:05;8.45;;;6.15;;
56718;SDS011;42597;40.636;0.278;2023-09-08T01:14:32;7.47;;;5.47;;
56718;SDS011;42597;40.636;0.278;2023-09-08T01:16:58;7.50;;;5.85;;
56718;SDS011;42597;40.636;0.278;2023-09-08T01:19:23;7.85;;;6.13;;
56718;SDS011;42597;40.636;0.278;2023-09-08T01:21:52;8.02;;;5.30;;
56718;SDS011;42597;40.636;0.278;2023-09-08T01:27:05;7.68;;;5.72;;
56718;SDS011;42597;40.636;0.278;2023-09-08T01:29:32;8.73;;;5.35;;
56718;SDS011;42597;40.636;0.278;2023-09-08T01:32:00;8.17;;;6.30;;
56718;SDS011;42597;40.636;0.278;2023-09-08T01:34:26;8.25;;;6.55;;
56718;SDS011;42597;40.636;0.278;2023-09-08T01:36:51;6.43;;;5.28;;
56718;SDS011;42597;40.636;0.278;2023-09-08T01:39:17;6.93;;;6.03;;
56718;SDS011;42597;40.636;0.278;2023-09-08T01:41:42;7.47;;;5.82;;
56718;SDS011;42597;40.636;0.278;2023-09-08T01:44:08;10.20;;;6.18;;
56718;SDS011;42597;40.636;0.278;2023-09-08T01:46:35;9.00;;;5.80;;
56718;SDS011;42597;40.636;0.278;2023-09-08T01:49:01;8.52;;;6.00;;
56718;SDS011;42597;40.636;0.278;2023-09-08T01:51:26;9.10;;;6.18;;
56718;SDS011;42597;40.636;0.278;2023-09-08T01:53:52;7.50;;;5.95;;
56718;SDS011;42597;40.636;0.278;2023-09-08T01:56:17;8.15;;;5.43;;
56718;SDS011;42597;40.636;0.278;2023-09-08T01:58:43;9.63;;;5.25;;
56718;SDS011;42597;40.636;0.278;2023-09-08T02:01:08;7.38;;;5.93;;
56718;SDS011;42597;40.636;0.278;2023-09-08T02:03:34;7.68;;;6.43;;
56718;SDS011;42597;40.636;0.278;2023-09-08T02:05:59;8.25;;;6.35;;
56718;SDS011;42597;40.636;0.278;2023-09-08T02:08:25;9.80;;;5.78;;
56718;SDS011;42597;40.636;0.278;2023-09-08T02:10:50;8.30;;;6.55;;
56718;SDS011;42597;40.636;0.278;2023-09-08T02:13:16;7.70;;;5.40;;
56718;SDS011;42597;40.636;0.278;2023-09-08T02:15:41;7.90;;;5.65;;
56718;SDS011;42597;40.636;0.278;2023-09-08T02:18:07;7.13;;;5.00;;
56718;SDS011;42597;40.636;0.278;2023-09-08T02:20:33;7.05;;;5.82;;
56718;SDS011;42597;40.636;0.278;2023-09-08T02:23:03;7.70;;;5.78;;
56718;SDS011;42597;40.636;0.278;2023-09-08T02:25:29;6.78;;;5.57;;
56718;SDS011;42597;40.636;0.278;2023-09-08T02:27:55;7.60;;;5.20;;
56718;SDS011;42597;40.636;0.278;2023-09-08T02:30:20;8.52;;;5.68;;
56718;SDS011;42597;40.636;0.278;2023-09-08T02:32:46;9.77;;;6.47;;
56718;SDS011;42597;40.636;0.278;2023-09-08T02:35:11;7.85;;;6.13;;
56718;SDS011;42597;40.636;0.278;2023-09-08T02:37:37;6.97;;;5.45;;
56718;SDS011;42597;40.636;0.278;2023-09-08T02:40:03;8.50;;;5.28;;
56718;SDS011;42597;40.636;0.278;2023-09-08T02:42:30;8.95;;;6.10;;
56718;SDS011;42597;40.636;0.278;2023-09-08T02:44:56;11.45;;;6.10;;
56718;SDS011;42597;40.636;0.278;2023-09-08T02:47:21;8.60;;;5.80;;
56718;SDS011;42597;40.636;0.278;2023-09-08T02:49:47;11.50;;;5.88;;
56718;SDS011;42597;40.636;0.278;2023-09-08T02:52:12;6.88;;;5.68;;
56718;SDS011;42597;40.636;0.278;2023-09-08T02:54:38;10.57;;;5.40;;
56718;SDS011;42597;40.636;0.278;2023-09-08T02:57:04;7.97;;;5.88;;
56718;SDS011;42597;40.636;0.278;2023-09-08T02:59:30;9.15;;;6.32;;
56718;SDS011;42597;40.636;0.278;2023-09-08T03:01:55;7.72;;;5.70;;
56718;SDS011;42597;40.636;0.278;2023-09-08T03:04:21;7.03;;;5.43;;
56718;SDS011;42597;40.636;0.278;2023-09-08T03:06:46;7.20;;;5.13;;
56718;SDS011;42597;40.636;0.278;2023-09-08T03:09:12;7.63;;;5.93;;
56718;SDS011;42597;40.636;0.278;2023-09-08T03:11:37;7.50;;;5.55;;
56718;SDS011;42597;40.636;0.278;2023-09-08T03:14:03;8.90;;;5.10;;
56718;SDS011;42597;40.636;0.278;2023-09-08T03:16:28;8.23;;;6.22;;
56718;SDS011;42597;40.636;0.278;2023-09-08T03:18:54;9.10;;;5.65;;
56718;SDS011;42597;40.636;0.278;2023-09-08T03:21:19;8.45;;;5.63;;
56718;SDS011;42597;40.636;0.278;2023-09-08T03:23:45;7.47;;;6.10;;
56718;SDS011;42597;40.636;0.278;2023-09-08T03:26:11;8.07;;;6.15;;
56718;SDS011;42597;40.636;0.278;2023-09-08T03:28:37;7.72;;;5.85;;
56718;SDS011;42597;40.636;0.278;2023-09-08T03:31:06;7.28;;;5.88;;
56718;SDS011;42597;40.636;0.278;2023-09-08T03:33:31;7.15;;;5.65;;
56718;SDS011;42597;40.636;0.278;2023-09-08T03:35:57;7.72;;;5.13;;
56718;SDS011;42597;40.636;0.278;2023-09-08T03:38:23;8.07;;;5.45;;
56718;SDS011;42597;40.636;0.278;2023-09-08T03:40:48;8.73;;;5.95;;
56718;SDS011;42597;40.636;0.278;2023-09-08T03:43:14;7.28;;;5.60;;
56718;SDS011;42597;40.636;0.278;2023-09-08T03:45:39;9.38;;;6.07;;
56718;SDS011;42597;40.636;0.278;2023-09-08T03:48:05;7.53;;;5.70;;
56718;SDS011;42597;40.636;0.278;2023-09-08T03:50:31;8.73;;;5.97;;
56718;SDS011;42597;40.636;0.278;2023-09-08T03:52:57;7.18;;;5.25;;
56718;SDS011;42597;40.636;0.278;2023-09-08T03:55:22;7.45;;;5.75;;
56718;SDS011;42597;40.636;0.278;2023-09-08T03:57:48;8.82;;;5.28;;
56718;SDS011;42597;40.636;0.278;2023-09-08T04:00:14;10.05;;;7.15;;
56718;SDS011;42597;40.636;0.278;2023-09-08T04:02:45;8.30;;;6.78;;
56718;SDS011;42597;40.636;0.278;2023-09-08T04:05:11;8.13;;;6.28;;
56718;SDS011;42597;40.636;0.278;2023-09-08T04:07:37;14.07;;;7.40;;
56718;SDS011;42597;40.636;0.278;2023-09-08T04:10:02;8.52;;;7.45;;
56718;SDS011;42597;40.636;0.278;2023-09-08T04:12:28;8.88;;;6.18;;
56718;SDS011;42597;40.636;0.278;2023-09-08T04:14:54;7.65;;;6.15;;
56718;SDS011;42597;40.636;0.278;2023-09-08T04:17:19;10.30;;;5.53;;
56718;SDS011;42597;40.636;0.278;2023-09-08T04:19:45;7.40;;;5.72;;
56718;SDS011;42597;40.636;0.278;2023-09-08T04:22:10;7.93;;;6.57;;
56718;SDS011;42597;40.636;0.278;2023-09-08T04:24:36;7.13;;;5.53;;
56718;SDS011;42597;40.636;0.278;2023-09-08T04:27:03;11.13;;;7.38;;
56718;SDS011;42597;40.636;0.278;2023-09-08T04:29:29;9.50;;;6.80;;
56718;SDS011;42597;40.636;0.278;2023-09-08T04:31:54;13.00;;;5.80;;
56718;SDS011;42597;40.636;0.278;2023-09-08T04:34:20;13.85;;;6.68;;
56718;SDS011;42597;40.636;0.278;2023-09-08T04:36:45;8.07;;;6.03;;
56718;SDS011;42597;40.636;0.278;2023-09-08T04:39:11;7.93;;;6.57;;
56718;SDS011;42597;40.636;0.278;2023-09-08T04:41:37;11.13;;;6.40;;
56718;SDS011;42597;40.636;0.278;2023-09-08T04:44:03;8.90;;;5.38;;
56718;SDS011;42597;40.636;0.278;2023-09-08T04:46:29;8.13;;;7.00;;
56718;SDS011;42597;40.636;0.278;2023-09-08T04:48:55;10.25;;;7.15;;
56718;SDS011;42597;40.636;0.278;2023-09-08T04:51:21;7.30;;;6.35;;
56718;SDS011;42597;40.636;0.278;2023-09-08T04:53:46;7.22;;;6.25;;
56718;SDS011;42597;40.636;0.278;2023-09-08T04:56:12;8.50;;;5.90;;
56718;SDS011;42597;40.636;0.278;2023-09-08T04:58:38;8.45;;;6.50;;
56718;SDS011;42597;40.636;0.278;2023-09-08T05:01:04;9.45;;;6.85;;
56718;SDS011;42597;40.636;0.278;2023-09-08T05:03:30;9.45;;;6.40;;
56718;SDS011;42597;40.636;0.278;2023-09-08T05:05:56;8.05;;;6.28;;
56718;SDS011;42597;40.636;0.278;2023-09-08T05:08:22;8.07;;;5.47;;
56718;SDS011;42597;40.636;0.278;2023-09-08T05:10:47;7.88;;;6.03;;
56718;SDS011;42597;40.636;0.278;2023-09-08T05:13:13;10.43;;;6.85;;
56718;SDS011;42597;40.636;0.278;2023-09-08T05:15:38;8.32;;;6.88;;
56718;SDS011;42597;40.636;0.278;2023-09-08T05:18:07;7.43;;;5.82;;
56718;SDS011;42597;40.636;0.278;2023-09-08T05:20:33;11.70;;;7.88;;
56718;SDS011;42597;40.636;0.278;2023-09-08T05:22:58;8.68;;;6.72;;
56718;SDS011;42597;40.636;0.278;2023-09-08T05:25:24;9.43;;;6.25;;
56718;SDS011;42597;40.636;0.278;2023-09-08T05:27:49;10.20;;;6.65;;
56718;SDS011;42597;40.636;0.278;2023-09-08T05:30:15;9.70;;;6.40;;
56718;SDS011;42597;40.636;0.278;2023-09-08T05:32:40;7.88;;;5.93;;
56718;SDS011;42597;40.636;0.278;2023-09-08T05:35:06;7.70;;;6.03;;
56718;SDS011;42597;40.636;0.278;2023-09-08T05:37:32;9.25;;;6.72;;
56718;SDS011;42597;40.636;0.278;2023-09-08T05:39:57;7.53;;;6.05;;
56718;SDS011;42597;40.636;0.278;2023-09-08T05:42:22;9.27;;;6.75;;
56718;SDS011;42597;40.636;0.278;2023-09-08T05:44:48;8.02;;;6.38;;
56718;SDS011;42597;40.636;0.278;2023-09-08T05:47:14;9.80;;;6.90;;
56718;SDS011;42597;40.636;0.278;2023-09-08T05:49:39;7.80;;;5.72;;
56718;SDS011;42597;40.636;0.278;2023-09-08T05:52:05;8.77;;;6.97;;
56718;SDS011;42597;40.636;0.278;2023-09-08T05:54:30;7.47;;;6.18;;
56718;SDS011;42597;40.636;0.278;2023-09-08T05:56:56;7.63;;;6.05;;
56718;SDS011;42597;40.636;0.278;2023-09-08T05:59:21;9.52;;;7.38;;
56718;SDS011;42597;40.636;0.278;2023-09-08T06:01:47;7.05;;;6.20;;
56718;SDS011;42597;40.636;0.278;2023-09-08T06:04:12;7.68;;;5.93;;
56718;SDS011;42597;40.636;0.278;2023-09-08T06:06:38;8.45;;;6.20;;
56718;SDS011;42597;40.636;0.278;2023-09-08T06:09:04;11.25;;;7.50;;
56718;SDS011;42597;40.636;0.278;2023-09-08T06:11:33;9.15;;;6.63;;
56718;SDS011;42597;40.636;0.278;2023-09-08T06:13:58;11.05;;;6.88;;
56718;SDS011;42597;40.636;0.278;2023-09-08T06:16:24;11.20;;;7.10;;
56718;SDS011;42597;40.636;0.278;2023-09-08T06:18:50;9.93;;;6.70;;
56718;SDS011;42597;40.636;0.278;2023-09-08T06:21:16;10.88;;;6.75;;
56718;SDS011;42597;40.636;0.278;2023-09-08T06:23:41;8.40;;;6.43;;
56718;SDS011;42597;40.636;0.278;2023-09-08T06:26:07;9.30;;;6.63;;
56718;SDS011;42597;40.636;0.278;2023-09-08T06:28:33;9.20;;;6.72;;
56718;SDS011;42597;40.636;0.278;2023-09-08T06:30:58;7.90;;;6.53;;
56718;SDS011;42597;40.636;0.278;2023-09-08T06:33:24;8.85;;;6.25;;
56718;SDS011;42597;40.636;0.278;2023-09-08T06:35:50;9.23;;;6.07;;
56718;SDS011;42597;40.636;0.278;2023-09-08T06:38:15;8.43;;;6.03;;
56718;SDS011;42597;40.636;0.278;2023-09-08T06:40:41;7.50;;;6.38;;
56718;SDS011;42597;40.636;0.278;2023-09-08T06:43:06;8.13;;;6.28;;
56718;SDS011;42597;40.636;0.278;2023-09-08T06:45:32;8.48;;;6.50;;
56718;SDS011;42597;40.636;0.278;2023-09-08T06:47:58;8.93;;;7.32;;
56718;SDS011;42597;40.636;0.278;2023-09-08T06:50:25;8.32;;;6.90;;
56718;SDS011;42597;40.636;0.278;2023-09-08T06:52:51;7.50;;;5.93;;
56718;SDS011;42597;40.636;0.278;2023-09-08T06:55:17;10.98;;;7.00;;
56718;SDS011;42597;40.636;0.278;2023-09-08T06:57:44;7.20;;;6.50;;
56718;SDS011;42597;40.636;0.278;2023-09-08T07:00:10;9.60;;;6.43;;
56718;SDS011;42597;40.636;0.278;2023-09-08T07:02:37;6.85;;;5.97;;
56718;SDS011;42597;40.636;0.278;2023-09-08T07:05:03;8.38;;;5.82;;
56718;SDS011;42597;40.636;0.278;2023-09-08T07:07:36;8.73;;;6.55;;
56718;SDS011;42597;40.636;0.278;2023-09-08T07:10:03;8.50;;;6.70;;
56718;SDS011;42597;40.636;0.278;2023-09-08T07:12:29;10.48;;;6.40;;
56718;SDS011;42597;40.636;0.278;2023-09-08T07:14:55;9.55;;;6.68;;
56718;SDS011;42597;40.636;0.278;2023-09-08T07:17:21;9.77;;;6.97;;
56718;SDS011;42597;40.636;0.278;2023-09-08T07:19:48;9.00;;;7.35;;
56718;SDS011;42597;40.636;0.278;2023-09-08T07:22:14;8.38;;;6.53;;
56718;SDS011;42597;40.636;0.278;2023-09-08T07:24:40;8.60;;;7.07;;
56718;SDS011;42597;40.636;0.278;2023-09-08T07:27:05;9.02;;;6.50;;
56718;SDS011;42597;40.636;0.278;2023-09-08T07:29:31;10.98;;;7.57;;
56718;SDS011;42597;40.636;0.278;2023-09-08T07:31:57;8.63;;;6.88;;
56718;SDS011;42597;40.636;0.278;2023-09-08T07:34:22;10.70;;;7.55;;
56718;SDS011;42597;40.636;0.278;2023-09-08T07:36:48;8.88;;;7.00;;
56718;SDS011;42597;40.636;0.278;2023-09-08T07:39:13;11.00;;;6.85;;
56718;SDS011;42597;40.636;0.278;2023-09-08T07:41:39;8.15;;;6.68;;
56718;SDS011;42597;40.636;0.278;2023-09-08T07:44:05;6.57;;;5.53;;
56718;SDS011;42597;40.636;0.278;2023-09-08T07:46:31;7.63;;;5.95;;
56718;SDS011;42597;40.636;0.278;2023-09-08T07:49:00;10.05;;;7.63;;
56718;SDS011;42597;40.636;0.278;2023-09-08T07:51:26;7.90;;;6.40;;
56718;SDS011;42597;40.636;0.278;2023-09-08T07:53:55;8.90;;;6.78;;
56718;SDS011;42597;40.636;0.278;2023-09-08T07:56:21;7.53;;;5.72;;
56718;SDS011;42597;40.636;0.278;2023-09-08T07:58:47;12.07;;;9.52;;
56718;SDS011;42597;40.636;0.278;2023-09-08T08:01:13;9.30;;;7.75;;
56718;SDS011;42597;40.636;0.278;2023-09-08T08:03:39;11.57;;;7.70;;
56718;SDS011;42597;40.636;0.278;2023-09-08T08:06:04;9.73;;;7.15;;
56718;SDS011;42597;40.636;0.278;2023-09-08T08:08:31;8.63;;;6.65;;
56718;SDS011;42597;40.636;0.278;2023-09-08T08:10:57;8.40;;;6.53;;
56718;SDS011;42597;40.636;0.278;2023-09-08T08:13:22;9.18;;;6.63;;
56718;SDS011;42597;40.636;0.278;2023-09-08T08:15:48;9.60;;;7.10;;
56718;SDS011;42597;40.636;0.278;2023-09-08T08:18:14;11.70;;;8.77;;
56718;SDS011;42597;40.636;0.278;2023-09-08T08:20:40;10.32;;;7.47;;
56718;SDS011;42597;40.636;0.278;2023-09-08T08:23:06;11.55;;;7.40;;
56718;SDS011;42597;40.636;0.278;2023-09-08T08:25:33;10.13;;;7.53;;
56718;SDS011;42597;40.636;0.278;2023-09-08T08:27:59;9.82;;;8.30;;
56718;SDS011;42597;40.636;0.278;2023-09-08T08:30:26;18.58;;;15.02;;
56718;SDS011;42597;40.636;0.278;2023-09-08T08:32:52;9.73;;;7.80;;
56718;SDS011;42597;40.636;0.278;2023-09-08T08:37:46;12.23;;;9.35;;
56718;SDS011;42597;40.636;0.278;2023-09-08T08:40:11;10.32;;;8.77;;
56718;SDS011;42597;40.636;0.278;2023-09-08T08:42:37;15.98;;;11.82;;
56718;SDS011;42597;40.636;0.278;2023-09-08T08:45:04;10.65;;;8.88;;
56718;SDS011;42597;40.636;0.278;2023-09-08T08:47:30;10.95;;;9.35;;
56718;SDS011;42597;40.636;0.278;2023-09-08T08:49:56;16.40;;;14.57;;
56718;SDS011;42597;40.636;0.278;2023-09-08T08:52:26;12.82;;;11.00;;
56718;SDS011;42597;40.636;0.278;2023-09-08T08:54:53;15.80;;;14.25;;
56718;SDS011;42597;40.636;0.278;2023-09-08T08:57:19;18.95;;;14.90;;
56718;SDS011;42597;40.636;0.278;2023-09-08T08:59:46;17.35;;;15.50;;
56718;SDS011;42597;40.636;0.278;2023-09-08T09:02:13;18.13;;;12.98;;
56718;SDS011;42597;40.636;0.278;2023-09-08T09:04:39;17.65;;;14.95;;
56718;SDS011;42597;40.636;0.278;2023-09-08T09:07:06;17.17;;;13.63;;
56718;SDS011;42597;40.636;0.278;2023-09-08T09:09:32;10.15;;;8.95;;
56718;SDS011;42597;40.636;0.278;2023-09-08T09:11:58;10.48;;;9.23;;
56718;SDS011;42597;40.636;0.278;2023-09-08T09:14:24;14.55;;;12.30;;
56718;SDS011;42597;40.636;0.278;2023-09-08T09:16:49;13.27;;;11.55;;
56718;SDS011;42597;40.636;0.278;2023-09-08T09:19:22;21.05;;;14.82;;
56718;SDS011;42597;40.636;0.278;2023-09-08T09:21:56;16.15;;;13.23;;
56718;SDS011;42597;40.636;0.278;2023-09-08T09:24:29;17.05;;;13.98;;
56718;SDS011;42597;40.636;0.278;2023-09-08T09:26:58;14.32;;;11.23;;
56718;SDS011;42597;40.636;0.278;2023-09-08T09:29:24;10.98;;;9.88;;
56718;SDS011;42597;40.636;0.278;2023-09-08T09:31:57;15.50;;;12.20;;
56718;SDS011;42597;40.636;0.278;2023-09-08T09:34:35;15.07;;;12.43;;
56718;SDS011;42597;40.636;0.278;2023-09-08T09:37:00;12.93;;;11.13;;
56718;SDS011;42597;40.636;0.278;2023-09-08T09:39:26;15.60;;;11.70;;
56718;SDS011;42597;40.636;0.278;2023-09-08T09:41:56;13.68;;;11.82;;
56718;SDS011;42597;40.636;0.278;2023-09-08T09:44:22;16.40;;;12.75;;
56718;SDS011;42597;40.636;0.278;2023-09-08T09:46:51;12.80;;;10.38;;
56718;SDS011;42597;40.636;0.278;2023-09-08T09:49:18;11.52;;;9.45;;
56718;SDS011;42597;40.636;0.278;2023-09-08T09:54:28;14.60;;;10.77;;
56718;SDS011;42597;40.636;0.278;2023-09-08T09:56:54;14.50;;;11.05;;
56718;SDS011;42597;40.636;0.278;2023-09-08T09:59:20;16.52;;;11.30;;
56718;SDS011;42597;40.636;0.278;2023-09-08T10:01:47;10.98;;;9.77;;
56718;SDS011;42597;40.636;0.278;2023-09-08T10:04:13;13.15;;;9.57;;
56718;SDS011;42597;40.636;0.278;2023-09-08T10:06:40;13.25;;;11.48;;
56718;SDS011;42597;40.636;0.278;2023-09-08T10:09:07;13.45;;;12.13;;
56718;SDS011;42597;40.636;0.278;2023-09-08T10:11:42;12.10;;;10.80;;
56718;SDS011;42597;40.636;0.278;2023-09-08T10:14:12;16.45;;;12.88;;
56718;SDS011;42597;40.636;0.278;2023-09-08T10:16:39;14.23;;;12.25;;
56718;SDS011;42597;40.636;0.278;2023-09-08T10:19:08;15.98;;;12.63;;
56718;SDS011;42597;40.636;0.278;2023-09-08T10:22:09;11.38;;;10.20;;
56718;SDS011;42597;40.636;0.278;2023-09-08T10:24:29;13.20;;;10.35;;
56718;SDS011;42597;40.636;0.278;2023-09-08T10:29:34;11.55;;;10.35;;
56718;SDS011;42597;40.636;0.278;2023-09-08T10:32:00;10.45;;;8.68;;
56718;SDS011;42597;40.636;0.278;2023-09-08T10:34:27;12.50;;;9.15;;
56718;SDS011;42597;40.636;0.278;2023-09-08T10:36:55;9.93;;;8.93;;
56718;SDS011;42597;40.636;0.278;2023-09-08T10:39:33;12.70;;;9.52;;
56718;SDS011;42597;40.636;0.278;2023-09-08T10:44:59;12.50;;;9.82;;
56718;SDS011;42597;40.636;0.278;2023-09-08T10:48:11;13.75;;;9.52;;
56718;SDS011;42597;40.636;0.278;2023-09-08T10:50:18;10.48;;;9.38;;
56718;SDS011;42597;40.636;0.278;2023-09-08T10:52:45;10.10;;;8.70;;
56718;SDS011;42597;40.636;0.278;2023-09-08T10:55:49;11.75;;;8.95;;
56718;SDS011;42597;40.636;0.278;2023-09-08T10:58:36;15.38;;;10.18;;
56718;SDS011;42597;40.636;0.278;2023-09-08T11:01:04;11.82;;;9.95;;
56718;SDS011;42597;40.636;0.278;2023-09-08T11:06:02;12.23;;;10.43;;
56718;SDS011;42597;40.636;0.278;2023-09-08T11:08:29;10.48;;;8.52;;
56718;SDS011;42597;40.636;0.278;2023-09-08T11:10:55;14.18;;;10.52;;
56718;SDS011;42597;40.636;0.278;2023-09-08T11:13:21;10.90;;;9.15;;
56718;SDS011;42597;40.636;0.278;2023-09-08T11:15:47;10.10;;;8.70;;
56718;SDS011;42597;40.636;0.278;2023-09-08T11:18:16;11.73;;;9.30;;
56718;SDS011;42597;40.636;0.278;2023-09-08T11:20:41;13.02;;;9.90;;
56718;SDS011;42597;40.636;0.278;2023-09-08T11:23:08;11.70;;;9.13;;
56718;SDS011;42597;40.636;0.278;2023-09-08T11:25:33;10.95;;;8.63;;
56718;SDS011;42597;40.636;0.278;2023-09-08T11:27:59;10.25;;;8.88;;
56718;SDS011;42597;40.636;0.278;2023-09-08T11:30:26;12.52;;;8.85;;
56718;SDS011;42597;40.636;0.278;2023-09-08T11:32:52;14.77;;;9.27;;
56718;SDS011;42597;40.636;0.278;2023-09-08T11:35:17;10.13;;;8.48;;
56718;SDS011;42597;40.636;0.278;2023-09-08T11:37:46;15.70;;;7.95;;
56718;SDS011;42597;40.636;0.278;2023-09-08T11:40:12;10.38;;;8.82;;
56718;SDS011;42597;40.636;0.278;2023-09-08T11:42:39;13.00;;;8.75;;
56718;SDS011;42597;40.636;0.278;2023-09-08T11:45:15;12.68;;;9.05;;
56718;SDS011;42597;40.636;0.278;2023-09-08T11:47:48;10.80;;;8.68;;
56718;SDS011;42597;40.636;0.278;2023-09-08T11:50:14;17.98;;;8.98;;
56718;SDS011;42597;40.636;0.278;2023-09-08T11:52:45;10.00;;;8.50;;
56718;SDS011;42597;40.636;0.278;2023-09-08T11:55:12;11.05;;;7.85;;
56718;SDS011;42597;40.636;0.278;2023-09-08T11:57:38;9.95;;;7.68;;
56718;SDS011;42597;40.636;0.278;2023-09-08T12:00:05;9.70;;;8.68;;
56718;SDS011;42597;40.636;0.278;2023-09-08T12:02:37;10.88;;;8.20;;
56718;SDS011;42597;40.636;0.278;2023-09-08T12:05:03;9.15;;;8.23;;
56718;SDS011;42597;40.636;0.278;2023-09-08T12:07:29;12.40;;;8.90;;
56718;SDS011;42597;40.636;0.278;2023-09-08T12:09:55;11.48;;;8.00;;
56718;SDS011;42597;40.636;0.278;2023-09-08T12:12:21;9.50;;;7.13;;
56718;SDS011;42597;40.636;0.278;2023-09-08T12:14:46;9.57;;;7.85;;
56718;SDS011;42597;40.636;0.278;2023-09-08T12:17:12;9.73;;;7.00;;
56718;SDS011;42597;40.636;0.278;2023-09-08T12:19:42;8.68;;;7.40;;
56718;SDS011;42597;40.636;0.278;2023-09-08T12:22:07;9.88;;;7.18;;
56718;SDS011;42597;40.636;0.278;2023-09-08T12:24:48;11.27;;;8.43;;
56718;SDS011;42597;40.636;0.278;2023-09-08T12:27:21;10.00;;;6.75;;
56718;SDS011;42597;40.636;0.278;2023-09-08T12:29:54;9.35;;;7.35;;
56718;SDS011;42597;40.636;0.278;2023-09-08T12:32:25;13.27;;;7.78;;
56718;SDS011;42597;40.636;0.278;2023-09-08T12:34:51;12.45;;;8.73;;
56718;SDS011;42597;40.636;0.278;2023-09-08T12:37:24;9.55;;;7.68;;
56718;SDS011;42597;40.636;0.278;2023-09-08T12:39:52;8.77;;;7.03;;
56718;SDS011;42597;40.636;0.278;2023-09-08T12:42:18;10.55;;;7.75;;
56718;SDS011;42597;40.636;0.278;2023-09-08T12:44:45;9.52;;;6.65;;
56718;SDS011;42597;40.636;0.278;2023-09-08T12:47:10;14.00;;;8.75;;
56718;SDS011;42597;40.636;0.278;2023-09-08T12:49:39;14.38;;;8.68;;
56718;SDS011;42597;40.636;0.278;2023-09-08T12:52:05;8.68;;;7.13;;
56718;SDS011;42597;40.636;0.278;2023-09-08T12:54:31;10.93;;;7.20;;
56718;SDS011;42597;40.636;0.278;2023-09-08T12:56:57;11.60;;;6.95;;
56718;SDS011;42597;40.636;0.278;2023-09-08T12:59:23;14.30;;;7.90;;
56718;SDS011;42597;40.636;0.278;2023-09-08T13:01:48;10.98;;;7.50;;
56718;SDS011;42597;40.636;0.278;2023-09-08T13:04:14;8.30;;;6.97;;
56718;SDS011;42597;40.636;0.278;2023-09-08T13:06:39;11.52;;;7.43;;
56718;SDS011;42597;40.636;0.278;2023-09-08T13:09:05;10.10;;;8.57;;
56718;SDS011;42597;40.636;0.278;2023-09-08T13:11:32;10.18;;;8.07;;
56718;SDS011;42597;40.636;0.278;2023-09-08T13:13:57;14.30;;;7.57;;
56718;SDS011;42597;40.636;0.278;2023-09-08T13:16:23;9.50;;;7.38;;
56718;SDS011;42597;40.636;0.278;2023-09-08T13:18:49;10.10;;;7.35;;
56718;SDS011;42597;40.636;0.278;2023-09-08T13:21:14;8.68;;;6.93;;
56718;SDS011;42597;40.636;0.278;2023-09-08T13:23:40;9.85;;;8.13;;
56718;SDS011;42597;40.636;0.278;2023-09-08T13:26:05;11.63;;;7.25;;
56718;SDS011;42597;40.636;0.278;2023-09-08T13:28:31;10.95;;;6.85;;
56718;SDS011;42597;40.636;0.278;2023-09-08T13:30:56;10.90;;;6.55;;
56718;SDS011;42597;40.636;0.278;2023-09-08T13:33:22;10.13;;;6.85;;
56718;SDS011;42597;40.636;0.278;2023-09-08T13:35:47;9.88;;;6.30;;
56718;SDS011;42597;40.636;0.278;2023-09-08T13:38:13;7.70;;;6.55;;
56718;SDS011;42597;40.636;0.278;2023-09-08T13:40:39;9.75;;;7.43;;
56718;SDS011;42597;40.636;0.278;2023-09-08T13:43:06;8.82;;;6.95;;
56718;SDS011;42597;40.636;0.278;2023-09-08T13:45:31;11.02;;;7.22;;
56718;SDS011;42597;40.636;0.278;2023-09-08T13:47:57;11.55;;;7.10;;
56718;SDS011;42597;40.636;0.278;2023-09-08T13:50:22;11.45;;;7.47;;
56718;SDS011;42597;40.636;0.278;2023-09-08T13:52:49;7.95;;;6.93;;
56718;SDS011;42597;40.636;0.278;2023-09-08T13:55:14;11.30;;;6.55;;
56718;SDS011;42597;40.636;0.278;2023-09-08T13:57:40;11.68;;;7.93;;
56718;SDS011;42597;40.636;0.278;2023-09-08T14:00:06;16.90;;;7.43;;
56718;SDS011;42597;40.636;0.278;2023-09-08T14:02:35;19.45;;;10.10;;
56718;SDS011;42597;40.636;0.278;2023-09-08T14:05:01;9.48;;;6.60;;
56718;SDS011;42597;40.636;0.278;2023-09-08T14:07:26;7.72;;;6.50;;
56718;SDS011;42597;40.636;0.278;2023-09-08T14:09:52;7.30;;;6.40;;
56718;SDS011;42597;40.636;0.278;2023-09-08T14:12:17;8.57;;;6.80;;
56718;SDS011;42597;40.636;0.278;2023-09-08T14:14:43;10.18;;;6.32;;
56718;SDS011;42597;40.636;0.278;2023-09-08T14:17:09;10.30;;;6.15;;
56718;SDS011;42597;40.636;0.278;2023-09-08T14:19:34;8.05;;;6.28;;
56718;SDS011;42597;40.636;0.278;2023-09-08T14:22:00;8.80;;;6.43;;
56718;SDS011;42597;40.636;0.278;2023-09-08T14:24:25;10.63;;;6.35;;
56718;SDS011;42597;40.636;0.278;2023-09-08T14:26:51;9.90;;;6.82;;
56718;SDS011;42597;40.636;0.278;2023-09-08T14:29:17;8.93;;;6.35;;
56718;SDS011;42597;40.636;0.278;2023-09-08T14:31:43;9.57;;;7.28;;
56718;SDS011;42597;40.636;0.278;2023-09-08T14:34:09;7.65;;;6.28;;
56718;SDS011;42597;40.636;0.278;2023-09-08T14:36:34;11.13;;;6.45;;
56718;SDS011;42597;40.636;0.278;2023-09-08T14:39:00;9.52;;;6.20;;
56718;SDS011;42597;40.636;0.278;2023-09-08T14:41:25;11.40;;;6.65;;
56718;SDS011;42597;40.636;0.278;2023-09-08T14:43:51;7.88;;;6.13;;
56718;SDS011;42597;40.636;0.278;2023-09-08T14:46:17;11.73;;;6.47;;
56718;SDS011;42597;40.636;0.278;2023-09-08T14:48:42;10.98;;;7.25;;
56718;SDS011;42597;40.636;0.278;2023-09-08T14:51:08;11.95;;;5.57;;
56718;SDS011;42597;40.636;0.278;2023-09-08T14:53:34;10.85;;;6.07;;